SANTIAGO DE COMPOSTELA, GALICIA

latitud = 42° 53' 17''N | Longitud = 008° 24' 38''W
370 metros sobre el nivel del mar | datos mensuales

Fecha, hora, temperatura, viento dirección y velocidad, humedad y presión.

  • 16-07-2018 13:00:00 | 18.90°C | Sudoeste |5.00 km/h | 68.00% | 979.60 hPa
  • 16-07-2018 12:00:00 | 18.10°C | Oeste |6.00 km/h | 74.00% | 979.50 hPa
  • 16-07-2018 11:00:00 | 16.70°C | Oeste |4.00 km/h | 82.00% | 979.20 hPa
  • 16-07-2018 10:00:00 | 16.50°C | Sur |5.00 km/h | 89.00% | 979.30 hPa
  • 16-07-2018 09:00:00 | 15.50°C | Oeste |5.00 km/h | 93.00% | 978.90 hPa
  • 16-07-2018 08:00:00 | 14.20°C | Oeste |2.00 km/h | 98.00% | 978.90 hPa
  • 16-07-2018 07:00:00 | 14.00°C | Noroeste |5.00 km/h | 98.00% | 978.70 hPa
  • 16-07-2018 06:00:00 | 14.20°C | 0 |0.00 km/h | 97.00% | 978.00 hPa
  • 16-07-2018 05:00:00 | 14.70°C | Oeste |3.00 km/h | 97.00% | 977.90 hPa
  • 16-07-2018 04:00:00 | 15.20°C | Calma |0.00 km/h | 96.00% | 978.00 hPa
  • 16-07-2018 03:00:00 | 15.20°C | Norte |5.00 km/h | 96.00% | 978.40 hPa
  • 16-07-2018 02:00:00 | 14.90°C | Noroeste |5.00 km/h | 96.00% | 978.40 hPa
  • 16-07-2018 01:00:00 | 15.80°C | Noroeste |8.00 km/h | 94.00% | 978.00 hPa
  • 16-07-2018 00:00:00 | 16.10°C | Calma |0.00 km/h | 94.00% | 977.90 hPa
  • 15-07-2018 23:00:00 | 16.30°C | Calma |0.00 km/h | 94.00% | 977.80 hPa
  • 15-07-2018 22:00:00 | 16.60°C | Norte |6.00 km/h | 94.00% | 977.30 hPa
  • 15-07-2018 21:00:00 | 17.60°C | Norte |12.00 km/h | 89.00% | 976.80 hPa
  • 15-07-2018 20:00:00 | 18.50°C | Oeste |6.00 km/h | 82.00% | 976.40 hPa
  • 15-07-2018 19:00:00 | 18.90°C | Oeste |8.00 km/h | 77.00% | 976.50 hPa
  • 15-07-2018 18:00:00 | 19.30°C | Oeste |12.00 km/h | 73.00% | 976.30 hPa
  • 15-07-2018 17:00:00 | 20.00°C | Noroeste |13.00 km/h | 74.00% | 976.20 hPa
  • 15-07-2018 16:00:00 | 20.80°C | Oeste |12.00 km/h | 72.00% | 976.20 hPa
  • 15-07-2018 15:00:00 | 20.00°C | Sudoeste |10.00 km/h | 75.00% | 976.20 hPa
  • 15-07-2018 14:00:00 | 19.20°C | Sudoeste |8.00 km/h | 79.00% | 976.10 hPa